Time;durP1;ratioP1;P1;durP2;ratioP2;P2;SDS_P1;SDS_P2;PMS_P1;PMS_P2;Temp;Humidity;BMP_temperature;BMP_pressure;BME280_temperature;BME280_humidity;BME280_pressure;Samples;Min_cycle;Max_cycle;Signal;HPM_P1;HPM_P2
2023/03/02 00:00:35;;;;;;;;;55.25;45.00;;;;;;;;5074207;28;47492;-72
2023/03/02 00:03:02;;;;;;;;;54.50;44.00;;;;;;;;5074379;28;45446;-72
2023/03/02 00:05:28;;;;;;;;;52.00;40.75;;;;;;;;5073948;28;45389;-73
2023/03/02 00:07:53;;;;;;;;;57.25;45.75;;;;;;;;5074232;28;45355;-72
2023/03/02 00:10:18;;;;;;;;;43.75;39.00;;;;;;;;5074016;27;45514;-72
2023/03/02 00:12:44;;;;;;;;;54.25;44.75;;;;;;;;5074164;28;45720;-72
2023/03/02 00:15:09;;;;;;;;;60.50;49.75;;;;;;;;5074103;28;45486;-72
2023/03/02 00:17:36;;;;;;;;;57.00;48.75;;;;;;;;5073566;28;45480;-73
2023/03/02 00:20:10;;;;;;;;;57.50;46.50;;;;;;;;5073702;27;46279;-73
2023/03/02 00:22:36;;;;;;;;;57.25;45.25;;;;;;;;5071636;28;45627;-73
2023/03/02 00:25:02;;;;;;;;;58.00;46.75;;;;;;;;5074055;27;45364;-73
2023/03/02 00:27:28;;;;;;;;;56.00;46.25;;;;;;;;5074035;28;45456;-73
2023/03/02 00:29:54;;;;;;;;;57.75;46.75;;;;;;;;5073533;28;45559;-72
2023/03/02 00:32:20;;;;;;;;;51.75;41.75;;;;;;;;5073760;27;45495;-73
2023/03/02 00:34:45;;;;;;;;;59.75;46.25;;;;;;;;5073674;28;45501;-73
2023/03/02 00:37:10;;;;;;;;;63.00;48.75;;;;;;;;5073631;27;45509;-73
2023/03/02 00:39:35;;;;;;;;;65.50;50.25;;;;;;;;5073749;27;46127;-72
2023/03/02 00:42:01;;;;;;;;;58.25;47.25;;;;;;;;5073880;28;45442;-71
2023/03/02 00:44:26;;;;;;;;;54.25;46.00;;;;;;;;5076691;27;45473;-72
2023/03/02 00:46:51;;;;;;;;;58.50;48.25;;;;;;;;5077602;27;45421;-72
2023/03/02 00:49:16;;;;;;;;;56.25;47.25;;;;;;;;5076793;27;45370;-72
2023/03/02 00:51:41;;;;;;;;;55.00;45.00;;;;;;;;5077045;28;45442;-72
2023/03/02 00:54:07;;;;;;;;;57.75;48.75;;;;;;;;5077254;27;45394;-73
2023/03/02 00:56:32;;;;;;;;;49.25;42.25;;;;;;;;5076932;28;45603;-73
2023/03/02 00:58:57;;;;;;;;;57.75;46.50;;;;;;;;5076870;28;45992;-72
2023/03/02 01:01:22;;;;;;;;;54.75;44.25;;;;;;;;5076916;27;45396;-73
2023/03/02 01:03:48;;;;;;;;;56.25;46.75;;;;;;;;5075351;28;45340;-73
2023/03/02 01:06:17;;;;;;;;;41.75;39.75;;;;;;;;5077267;28;45394;-73
2023/03/02 01:08:42;;;;;;;;;56.50;44.25;;;;;;;;5076628;27;45460;-73
2023/03/02 01:11:14;;;;;;;;;50.75;42.75;;;;;;;;5075399;28;45547;-73
2023/03/02 01:13:40;;;;;;;;;48.00;41.00;;;;;;;;5075613;28;45310;-72
2023/03/02 01:16:05;;;;;;;;;60.00;47.00;;;;;;;;5076903;27;45295;-73
2023/03/02 01:18:31;;;;;;;;;54.25;44.25;;;;;;;;5075993;28;45330;-72
2023/03/02 01:21:01;;;;;;;;;47.75;40.75;;;;;;;;5076577;28;45403;-73
2023/03/02 01:23:26;;;;;;;;;55.50;43.00;;;;;;;;5076938;28;45447;-72
2023/03/02 01:25:52;;;;;;;;;53.25;42.75;;;;;;;;5076278;28;45440;-72
2023/03/02 01:28:17;;;;;;;;;48.75;42.50;;;;;;;;5076456;28;45485;-72
2023/03/02 01:30:42;;;;;;;;;47.25;40.25;;;;;;;;5076505;27;45436;-72
2023/03/02 01:33:07;;;;;;;;;56.00;45.00;;;;;;;;5076343;28;45280;-72
2023/03/02 01:35:32;;;;;;;;;51.50;43.50;;;;;;;;5076949;28;45416;-72
2023/03/02 01:37:58;;;;;;;;;56.00;43.50;;;;;;;;5076357;27;45655;-72
2023/03/02 01:40:23;;;;;;;;;48.75;40.50;;;;;;;;5076554;28;45668;-72
2023/03/02 01:42:56;;;;;;;;;46.25;39.50;;;;;;;;5076755;27;45287;-71
2023/03/02 01:45:39;;;;;;;;;50.25;43.00;;;;;;;;5076619;27;45301;-72
2023/03/02 01:48:04;;;;;;;;;55.00;41.75;;;;;;;;5075097;28;46296;-72
2023/03/02 01:50:30;;;;;;;;;55.50;44.75;;;;;;;;5074946;28;45394;-72
2023/03/02 01:52:55;;;;;;;;;51.75;41.75;;;;;;;;5076485;27;45713;-72
2023/03/02 01:55:23;;;;;;;;;56.50;44.50;;;;;;;;5075352;28;45247;-72
2023/03/02 01:57:51;;;;;;;;;51.50;41.75;;;;;;;;5078664;27;46507;-72
2023/03/02 02:00:27;;;;;;;;;55.50;44.75;;;;;;;;5077062;28;45437;-71
2023/03/02 02:02:53;;;;;;;;;59.50;46.00;;;;;;;;5077528;27;45362;-72
2023/03/02 02:05:20;;;;;;;;;58.00;47.25;;;;;;;;5077588;28;45370;-71
2023/03/02 02:07:46;;;;;;;;;46.00;42.25;;;;;;;;5076591;27;45368;-72
2023/03/02 02:10:11;;;;;;;;;51.75;42.50;;;;;;;;5076930;28;45516;-71
2023/03/02 02:12:36;;;;;;;;;58.50;47.50;;;;;;;;5075814;28;45446;-72
2023/03/02 02:15:03;;;;;;;;;63.75;47.00;;;;;;;;5075319;28;45246;-71
2023/03/02 02:17:28;;;;;;;;;50.75;44.00;;;;;;;;5075219;28;45354;-72
2023/03/02 02:19:54;;;;;;;;;57.00;47.25;;;;;;;;5076610;28;45540;-72
2023/03/02 02:22:33;;;;;;;;;49.00;41.75;;;;;;;;5077097;28;45339;-72
2023/03/02 02:25:02;;;;;;;;;49.00;43.00;;;;;;;;5077157;28;45349;-72
2023/03/02 02:27:28;;;;;;;;;50.50;42.00;;;;;;;;5077269;28;46235;-72
2023/03/02 02:29:57;;;;;;;;;47.00;43.00;;;;;;;;5074973;28;45393;-71
2023/03/02 02:32:31;;;;;;;;;50.75;41.75;;;;;;;;5076589;28;45353;-71
2023/03/02 02:35:16;;;;;;;;;54.75;45.75;;;;;;;;5076194;27;45410;-72
2023/03/02 02:37:44;;;;;;;;;58.25;43.25;;;;;;;;5075627;28;46615;-72
2023/03/02 02:40:12;;;;;;;;;47.50;39.75;;;;;;;;5076093;28;45532;-72
2023/03/02 02:42:42;;;;;;;;;55.75;44.25;;;;;;;;5076159;27;45388;-72
2023/03/02 02:45:16;;;;;;;;;56.50;44.50;;;;;;;;5076089;28;45373;-71
2023/03/02 02:47:42;;;;;;;;;47.50;43.50;;;;;;;;5076049;27;46086;-71
2023/03/02 02:50:15;;;;;;;;;48.50;41.00;;;;;;;;5074681;28;45856;-71
2023/03/02 02:52:41;;;;;;;;;51.75;43.00;;;;;;;;5076709;27;45625;-71
2023/03/02 02:55:13;;;;;;;;;55.25;44.75;;;;;;;;5076124;28;45351;-71
2023/03/02 02:57:39;;;;;;;;;49.00;41.25;;;;;;;;5075785;27;46065;-71
2023/03/02 03:00:05;;;;;;;;;43.00;38.75;;;;;;;;5075717;27;45299;-71
2023/03/02 03:02:33;;;;;;;;;42.75;37.00;;;;;;;;5075844;28;45338;-72
2023/03/02 03:05:02;;;;;;;;;51.50;43.25;;;;;;;;5075504;27;45448;-71
2023/03/02 03:07:28;;;;;;;;;49.75;40.75;;;;;;;;5075187;27;46347;-72
2023/03/02 03:10:12;;;;;;;;;46.25;41.00;;;;;;;;5075603;28;45982;-71
2023/03/02 03:12:38;;;;;;;;;45.75;36.00;;;;;;;;5074918;28;45503;-71
2023/03/02 03:15:04;;;;;;;;;52.50;44.50;;;;;;;;5072459;28;45415;-71
2023/03/02 03:17:30;;;;;;;;;49.50;41.50;;;;;;;;5075140;27;46991;-71
2023/03/02 03:20:04;;;;;;;;;53.00;39.75;;;;;;;;5074325;28;45295;-71
2023/03/02 03:22:30;;;;;;;;;53.50;43.50;;;;;;;;5073900;28;46222;-72
2023/03/02 03:24:55;;;;;;;;;49.50;41.75;;;;;;;;5075724;27;45472;-72
2023/03/02 03:27:20;;;;;;;;;44.25;40.75;;;;;;;;5075212;28;46196;-72
2023/03/02 03:29:47;;;;;;;;;56.25;42.75;;;;;;;;5075098;28;45299;-71
2023/03/02 03:32:12;;;;;;;;;53.50;44.75;;;;;;;;5075771;28;45426;-72
2023/03/02 03:34:39;;;;;;;;;48.25;42.00;;;;;;;;5075687;28;45564;-72
2023/03/02 03:37:05;;;;;;;;;47.25;42.25;;;;;;;;5075677;28;45420;-71
2023/03/02 03:39:30;;;;;;;;;52.00;41.75;;;;;;;;5075845;28;45406;-72
2023/03/02 03:41:55;;;;;;;;;54.25;42.50;;;;;;;;5075574;28;45468;-72
2023/03/02 03:44:21;;;;;;;;;47.75;40.75;;;;;;;;5075594;28;45389;-72
2023/03/02 03:46:46;;;;;;;;;44.00;35.50;;;;;;;;5075575;28;47348;-72
2023/03/02 03:49:12;;;;;;;;;52.75;42.00;;;;;;;;5075492;28;45296;-72
2023/03/02 03:51:37;;;;;;;;;57.50;45.50;;;;;;;;5075620;28;45315;-72
2023/03/02 03:54:03;;;;;;;;;59.25;47.25;;;;;;;;5073756;28;45634;-71
2023/03/02 03:56:29;;;;;;;;;48.25;42.75;;;;;;;;5073295;28;47381;-71
2023/03/02 03:59:07;;;;;;;;;61.25;50.25;;;;;;;;5074990;28;45445;-72
2023/03/02 04:01:36;;;;;;;;;43.00;40.50;;;;;;;;5074895;28;45334;-72
2023/03/02 04:04:02;;;;;;;;;53.50;43.50;;;;;;;;5074940;28;45315;-73
2023/03/02 04:06:27;;;;;;;;;52.25;42.25;;;;;;;;5075066;28;45478;-73
2023/03/02 04:08:53;;;;;;;;;47.75;41.00;;;;;;;;5075476;28;45298;-73
2023/03/02 04:11:18;;;;;;;;;51.75;43.00;;;;;;;;5075395;28;45296;-73
2023/03/02 04:13:43;;;;;;;;;57.00;42.00;;;;;;;;5074865;28;45250;-72
2023/03/02 04:16:08;;;;;;;;;43.50;40.75;;;;;;;;5075251;28;45282;-72
2023/03/02 04:18:33;;;;;;;;;55.50;44.25;;;;;;;;5076745;28;45351;-73
2023/03/02 04:20:59;;;;;;;;;53.75;44.25;;;;;;;;5078771;28;45208;-73
2023/03/02 04:23:24;;;;;;;;;55.00;41.50;;;;;;;;5079085;28;45183;-73
2023/03/02 04:25:49;;;;;;;;;57.75;44.50;;;;;;;;5078702;28;45397;-72
2023/03/02 04:28:16;;;;;;;;;47.00;41.25;;;;;;;;5078688;28;45239;-72
2023/03/02 04:30:41;;;;;;;;;51.00;43.25;;;;;;;;5078873;28;45566;-72
2023/03/02 04:33:06;;;;;;;;;48.50;41.25;;;;;;;;5078537;28;45373;-73
2023/03/02 04:35:31;;;;;;;;;56.25;43.00;;;;;;;;5078941;28;47420;-73
2023/03/02 04:37:57;;;;;;;;;53.25;45.00;;;;;;;;5078096;28;45304;-73
2023/03/02 04:40:22;;;;;;;;;50.50;42.00;;;;;;;;5078852;28;45325;-73
2023/03/02 04:42:47;;;;;;;;;58.50;47.50;;;;;;;;5078342;28;45344;-72
2023/03/02 04:45:13;;;;;;;;;57.25;44.00;;;;;;;;5078394;28;47250;-73
2023/03/02 04:47:38;;;;;;;;;52.75;44.50;;;;;;;;5078404;28;45354;-73
2023/03/02 04:50:04;;;;;;;;;49.25;42.25;;;;;;;;5078594;28;45401;-73
2023/03/02 04:52:29;;;;;;;;;56.75;45.75;;;;;;;;5078135;28;45291;-73
2023/03/02 04:54:55;;;;;;;;;49.50;41.75;;;;;;;;5078139;28;45388;-73
2023/03/02 04:57:20;;;;;;;;;53.00;42.50;;;;;;;;5078037;28;45307;-72
2023/03/02 04:59:45;;;;;;;;;55.50;44.00;;;;;;;;5078029;28;45338;-72
2023/03/02 05:02:10;;;;;;;;;57.50;44.75;;;;;;;;5078056;28;45301;-73
2023/03/02 05:04:35;;;;;;;;;46.75;41.00;;;;;;;;5077825;28;46020;-72
2023/03/02 05:07:01;;;;;;;;;53.75;44.50;;;;;;;;5077443;28;45332;-72
2023/03/02 05:09:28;;;;;;;;;52.50;42.25;;;;;;;;5077160;28;45463;-73
2023/03/02 05:11:54;;;;;;;;;52.00;43.50;;;;;;;;5078071;27;45257;-72
2023/03/02 05:14:19;;;;;;;;;52.25;43.75;;;;;;;;5076545;28;45486;-70
2023/03/02 05:16:44;;;;;;;;;56.75;47.50;;;;;;;;5077615;28;45294;-72
2023/03/02 05:19:10;;;;;;;;;50.50;43.00;;;;;;;;5077959;28;45434;-73
2023/03/02 05:21:35;;;;;;;;;51.75;45.25;;;;;;;;5077958;27;45524;-73
2023/03/02 05:24:02;;;;;;;;;56.75;47.75;;;;;;;;5077734;28;46144;-73
2023/03/02 05:26:27;;;;;;;;;46.00;37.50;;;;;;;;5077658;28;45509;-73
2023/03/02 05:28:52;;;;;;;;;54.25;45.25;;;;;;;;5075506;28;45509;-73
2023/03/02 05:31:22;;;;;;;;;54.75;46.25;;;;;;;;5076982;28;45403;-72
2023/03/02 05:33:47;;;;;;;;;56.75;42.00;;;;;;;;5077210;28;45997;-73
2023/03/02 05:36:12;;;;;;;;;57.25;46.00;;;;;;;;5077460;27;45276;-73
2023/03/02 05:38:37;;;;;;;;;47.25;43.00;;;;;;;;5077286;28;45373;-71
2023/03/02 05:41:03;;;;;;;;;57.00;47.50;;;;;;;;5077358;28;45288;-71
2023/03/02 05:43:28;;;;;;;;;57.25;45.25;;;;;;;;5076135;28;45599;-73
2023/03/02 05:45:59;;;;;;;;;54.50;44.25;;;;;;;;5077029;28;45333;-73
2023/03/02 05:48:24;;;;;;;;;52.75;41.00;;;;;;;;5077429;28;45349;-73
2023/03/02 05:50:49;;;;;;;;;61.75;49.25;;;;;;;;5077146;27;45329;-73
2023/03/02 05:53:14;;;;;;;;;50.00;41.00;;;;;;;;5076775;28;46228;-72
2023/03/02 05:55:39;;;;;;;;;57.00;46.00;;;;;;;;5077443;28;45383;-72
2023/03/02 05:58:05;;;;;;;;;52.75;44.50;;;;;;;;5075906;28;45452;-72
2023/03/02 06:00:31;;;;;;;;;56.00;46.25;;;;;;;;5077333;28;45302;-72
2023/03/02 06:02:56;;;;;;;;;59.25;47.00;;;;;;;;5075881;28;46039;-71
2023/03/02 06:05:21;;;;;;;;;59.25;48.50;;;;;;;;5076794;28;45556;-72
2023/03/02 06:07:46;;;;;;;;;55.25;44.25;;;;;;;;5075288;28;45362;-72
2023/03/02 06:10:12;;;;;;;;;57.00;45.50;;;;;;;;5077046;28;45557;-71
2023/03/02 06:12:37;;;;;;;;;49.00;43.25;;;;;;;;5075224;28;47227;-72
2023/03/02 06:15:04;;;;;;;;;57.75;46.50;;;;;;;;5076165;28;45421;-73
2023/03/02 06:17:29;;;;;;;;;59.00;49.25;;;;;;;;5076639;27;45511;-72
2023/03/02 06:19:54;;;;;;;;;60.50;51.00;;;;;;;;5077621;28;45491;-72
2023/03/02 06:22:19;;;;;;;;;60.75;49.75;;;;;;;;5068502;28;45534;-73
2023/03/02 06:24:45;;;;;;;;;58.50;48.25;;;;;;;;5065440;28;45317;-73
2023/03/02 06:27:11;;;;;;;;;59.50;48.75;;;;;;;;5056635;28;45394;-72
2023/03/02 06:29:36;;;;;;;;;46.75;41.75;;;;;;;;5076093;28;45606;-72
2023/03/02 06:32:01;;;;;;;;;66.25;54.00;;;;;;;;5075021;27;46592;-72
2023/03/02 06:34:28;;;;;;;;;64.75;50.75;;;;;;;;5075097;27;45465;-73
2023/03/02 06:36:54;;;;;;;;;58.00;48.00;;;;;;;;5073765;27;45444;-73
2023/03/02 06:39:19;;;;;;;;;67.50;51.75;;;;;;;;5074059;28;45636;-73
2023/03/02 06:41:45;;;;;;;;;63.25;52.25;;;;;;;;5075108;27;45324;-73
2023/03/02 06:44:10;;;;;;;;;58.75;49.50;;;;;;;;5076176;27;45701;-72
2023/03/02 06:46:36;;;;;;;;;61.50;52.25;;;;;;;;5076314;27;45433;-72
2023/03/02 06:49:01;;;;;;;;;52.50;43.00;;;;;;;;5076406;27;45410;-73
2023/03/02 06:51:26;;;;;;;;;62.50;49.50;;;;;;;;5076125;27;45640;-72
2023/03/02 06:53:51;;;;;;;;;60.75;50.00;;;;;;;;5076196;27;45267;-73
2023/03/02 06:56:17;;;;;;;;;56.25;47.00;;;;;;;;5076323;27;45323;-73
2023/03/02 06:58:42;;;;;;;;;58.00;45.75;;;;;;;;5075996;27;45444;-73
2023/03/02 07:01:07;;;;;;;;;58.50;46.00;;;;;;;;5075711;27;46207;-75
2023/03/02 07:03:32;;;;;;;;;48.00;40.50;;;;;;;;5075997;27;45306;-74
2023/03/02 07:05:58;;;;;;;;;57.75;44.00;;;;;;;;5076170;27;45424;-74
2023/03/02 07:08:23;;;;;;;;;60.00;51.00;;;;;;;;5076050;28;45198;-74
2023/03/02 07:10:48;;;;;;;;;62.00;48.00;;;;;;;;5076084;27;47216;-74
2023/03/02 07:13:13;;;;;;;;;63.75;48.25;;;;;;;;5075325;27;45157;-74
2023/03/02 07:15:39;;;;;;;;;53.25;42.25;;;;;;;;5075419;28;45258;-75
2023/03/02 07:18:04;;;;;;;;;61.50;46.75;;;;;;;;5076146;28;45282;-74
2023/03/02 07:20:29;;;;;;;;;64.50;50.50;;;;;;;;5073580;28;45570;-74
2023/03/02 07:22:55;;;;;;;;;65.00;49.00;;;;;;;;5075894;27;45329;-74
2023/03/02 07:25:20;;;;;;;;;47.25;42.50;;;;;;;;5075345;28;45282;-74
2023/03/02 07:27:45;;;;;;;;;61.00;50.00;;;;;;;;5076275;28;45405;-74
2023/03/02 07:30:11;;;;;;;;;66.50;50.00;;;;;;;;5075768;28;46023;-74
2023/03/02 07:32:36;;;;;;;;;68.00;52.75;;;;;;;;5075639;28;45263;-74
2023/03/02 07:35:01;;;;;;;;;60.75;49.00;;;;;;;;5075226;28;45529;-74
2023/03/02 07:37:27;;;;;;;;;67.00;54.50;;;;;;;;5075384;28;45388;-74
2023/03/02 07:39:52;;;;;;;;;66.25;47.75;;;;;;;;5075686;28;45402;-74
2023/03/02 07:42:17;;;;;;;;;65.50;52.75;;;;;;;;5075820;28;45281;-73
2023/03/02 07:44:42;;;;;;;;;63.50;52.75;;;;;;;;5075983;28;45327;-72
2023/03/02 07:47:07;;;;;;;;;61.00;50.25;;;;;;;;5074954;28;45513;-72
2023/03/02 07:49:34;;;;;;;;;66.50;49.75;;;;;;;;5074762;28;46291;-73
2023/03/02 07:51:59;;;;;;;;;56.00;44.50;;;;;;;;5074853;28;45385;-73
2023/03/02 07:54:26;;;;;;;;;56.25;45.75;;;;;;;;5074988;28;45370;-72
2023/03/02 07:56:51;;;;;;;;;61.25;48.50;;;;;;;;5074478;27;45243;-72
2023/03/02 07:59:17;;;;;;;;;63.00;50.25;;;;;;;;5074131;28;45757;-72
2023/03/02 08:01:42;;;;;;;;;73.25;57.00;;;;;;;;5074168;28;45352;-72
2023/03/02 08:04:07;;;;;;;;;63.25;52.50;;;;;;;;5074839;28;45425;-72
2023/03/02 08:06:32;;;;;;;;;58.75;49.75;;;;;;;;5073905;28;45452;-72
2023/03/02 08:08:59;;;;;;;;;66.75;51.50;;;;;;;;5074929;28;46518;-72
2023/03/02 08:11:24;;;;;;;;;67.50;53.25;;;;;;;;5074896;28;45303;-72
2023/03/02 08:13:50;;;;;;;;;77.75;57.75;;;;;;;;5075441;27;45452;-72
2023/03/02 08:16:15;;;;;;;;;71.50;54.00;;;;;;;;5073924;28;45370;-72
2023/03/02 08:18:40;;;;;;;;;64.00;52.50;;;;;;;;5074578;28;45377;-72
2023/03/02 08:21:13;;;;;;;;;69.25;53.50;;;;;;;;5073854;28;45442;-72
2023/03/02 08:23:38;;;;;;;;;64.50;48.25;;;;;;;;5075214;27;45309;-72
2023/03/02 08:26:03;;;;;;;;;57.75;47.50;;;;;;;;5074371;28;45274;-72
2023/03/02 08:28:29;;;;;;;;;64.25;53.25;;;;;;;;5074062;28;46336;-72
2023/03/02 08:30:58;;;;;;;;;57.00;48.25;;;;;;;;5074850;28;45226;-72
2023/03/02 08:33:23;;;;;;;;;65.25;52.25;;;;;;;;5074877;28;45334;-73
2023/03/02 08:35:56;;;;;;;;;64.00;51.50;;;;;;;;5075043;28;45342;-72
2023/03/02 08:38:22;;;;;;;;;62.50;49.25;;;;;;;;5074881;27;46088;-72
2023/03/02 08:40:47;;;;;;;;;63.75;52.00;;;;;;;;5075037;28;46052;-72
2023/03/02 08:43:13;;;;;;;;;60.00;49.75;;;;;;;;5074748;28;45825;-72
2023/03/02 08:45:38;;;;;;;;;63.25;51.25;;;;;;;;5074959;27;45419;-73
2023/03/02 08:48:03;;;;;;;;;64.25;52.50;;;;;;;;5074368;28;46154;-72
2023/03/02 08:50:28;;;;;;;;;63.75;53.50;;;;;;;;5074609;28;45404;-73
2023/03/02 08:52:54;;;;;;;;;63.00;51.75;;;;;;;;5074420;28;45496;-72
2023/03/02 08:55:19;;;;;;;;;59.75;50.25;;;;;;;;5056181;28;45320;-72
2023/03/02 08:57:44;;;;;;;;;64.25;50.75;;;;;;;;5072920;28;46447;-72
2023/03/02 09:00:13;;;;;;;;;63.25;50.00;;;;;;;;5074199;28;45315;-72
2023/03/02 09:02:38;;;;;;;;;67.00;52.25;;;;;;;;5073840;28;45252;-72
2023/03/02 09:05:04;;;;;;;;;63.75;50.25;;;;;;;;5076376;28;45207;-72
2023/03/02 09:07:29;;;;;;;;;62.25;51.50;;;;;;;;5076065;28;46069;-72
2023/03/02 09:09:54;;;;;;;;;61.75;50.00;;;;;;;;5077870;28;45273;-72
2023/03/02 09:12:20;;;;;;;;;69.00;53.25;;;;;;;;5077752;28;45381;-72
2023/03/02 09:14:45;;;;;;;;;60.00;49.00;;;;;;;;5077750;28;45294;-72
2023/03/02 09:17:11;;;;;;;;;64.75;49.75;;;;;;;;5077324;28;46104;-73
2023/03/02 09:19:40;;;;;;;;;65.25;51.50;;;;;;;;5077943;27;45381;-73
2023/03/02 09:22:06;;;;;;;;;58.00;48.00;;;;;;;;5078051;28;45300;-73
2023/03/02 09:24:31;;;;;;;;;62.75;50.00;;;;;;;;5077988;28;45327;-73
2023/03/02 09:26:56;;;;;;;;;62.50;49.75;;;;;;;;5077974;28;46196;-73
2023/03/02 09:29:21;;;;;;;;;57.50;46.25;;;;;;;;5077387;28;45298;-73
2023/03/02 09:31:46;;;;;;;;;51.25;42.75;;;;;;;;5077567;28;45438;-73
2023/03/02 09:34:12;;;;;;;;;53.75;43.50;;;;;;;;5078306;28;45296;-74
2023/03/02 09:36:37;;;;;;;;;56.75;46.50;;;;;;;;5078082;28;45372;-73
2023/03/02 09:39:08;;;;;;;;;51.75;43.75;;;;;;;;5079156;27;45338;-74
2023/03/02 09:41:52;;;;;;;;;56.00;46.25;;;;;;;;5079012;27;45571;-74
2023/03/02 09:44:32;;;;;;;;;54.50;43.25;;;;;;;;5077522;28;45671;-73
2023/03/02 09:47:09;;;;;;;;;53.25;44.25;;;;;;;;5077151;28;46345;-73
2023/03/02 09:49:49;;;;;;;;;59.50;47.75;;;;;;;;5076646;28;45306;-73
2023/03/02 09:52:27;;;;;;;;;55.50;47.25;;;;;;;;5077550;28;45444;-73
2023/03/02 09:54:52;;;;;;;;;52.75;42.50;;;;;;;;5077197;28;45269;-74
2023/03/02 09:57:25;;;;;;;;;54.25;45.00;;;;;;;;5076961;28;46113;-73
2023/03/02 09:59:55;;;;;;;;;50.75;42.50;;;;;;;;5076791;28;45463;-73
2023/03/02 10:02:24;;;;;;;;;52.75;43.50;;;;;;;;5077126;28;45315;-73
2023/03/02 10:04:52;;;;;;;;;40.75;37.50;;;;;;;;5076833;28;45463;-73
2023/03/02 10:07:35;;;;;;;;;49.00;40.50;;;;;;;;5077008;28;46322;-73
2023/03/02 10:10:10;;;;;;;;;50.75;43.50;;;;;;;;5077079;28;45378;-73
2023/03/02 10:12:49;;;;;;;;;54.25;44.75;;;;;;;;5076888;28;45374;-74
2023/03/02 10:15:30;;;;;;;;;53.25;44.00;;;;;;;;5075718;28;45334;-73
2023/03/02 10:17:55;;;;;;;;;52.50;43.25;;;;;;;;5076321;28;45351;-73
2023/03/02 10:20:33;;;;;;;;;55.00;43.75;;;;;;;;5076832;28;45401;-73
2023/03/02 10:23:04;;;;;;;;;54.00;42.25;;;;;;;;5076758;28;45267;-73
2023/03/02 10:25:47;;;;;;;;;54.75;45.50;;;;;;;;5076990;28;45450;-73
2023/03/02 10:28:20;;;;;;;;;48.25;41.00;;;;;;;;5076786;28;46215;-73
2023/03/02 10:30:50;;;;;;;;;53.00;43.25;;;;;;;;5076222;28;45324;-73
2023/03/02 10:33:17;;;;;;;;;51.00;43.00;;;;;;;;5076311;28;45409;-74
2023/03/02 10:35:47;;;;;;;;;49.75;41.75;;;;;;;;5076103;27;45412;-73
2023/03/02 10:38:17;;;;;;;;;52.50;41.50;;;;;;;;5076614;27;45333;-73
2023/03/02 10:40:47;;;;;;;;;51.75;43.25;;;;;;;;5076174;28;45330;-73
2023/03/02 10:43:15;;;;;;;;;47.25;40.75;;;;;;;;5075299;28;45370;-73
2023/03/02 10:45:40;;;;;;;;;53.75;43.75;;;;;;;;5075647;28;45438;-73
2023/03/02 10:48:07;;;;;;;;;52.75;43.75;;;;;;;;5075352;28;47057;-73
2023/03/02 10:50:33;;;;;;;;;49.75;41.00;;;;;;;;5076089;28;45469;-74
2023/03/02 10:52:58;;;;;;;;;51.00;42.00;;;;;;;;5076096;28;45591;-73
2023/03/02 10:55:24;;;;;;;;;49.50;41.25;;;;;;;;5076519;27;45461;-73
2023/03/02 10:58:00;;;;;;;;;46.50;39.25;;;;;;;;5075942;28;47163;-73
2023/03/02 11:00:27;;;;;;;;;50.00;41.00;;;;;;;;5076249;28;45383;-73
2023/03/02 11:03:03;;;;;;;;;49.75;41.00;;;;;;;;5076440;28;45346;-73
2023/03/02 11:05:32;;;;;;;;;46.75;39.50;;;;;;;;5069001;27;45660;-73
2023/03/02 11:08:05;;;;;;;;;49.50;42.00;;;;;;;;5073590;27;46281;-73
2023/03/02 11:10:35;;;;;;;;;45.00;39.25;;;;;;;;5063495;27;45476;-74
2023/03/02 11:13:01;;;;;;;;;49.25;40.00;;;;;;;;5079737;27;45481;-73
2023/03/02 11:15:28;;;;;;;;;49.75;41.50;;;;;;;;5084051;27;45167;-74
2023/03/02 11:18:01;;;;;;;;;48.50;40.25;;;;;;;;5082287;27;46494;-74
2023/03/02 11:20:29;;;;;;;;;51.25;42.00;;;;;;;;5092105;27;45408;-74
2023/03/02 11:23:12;;;;;;;;;45.00;39.25;;;;;;;;5074622;27;45440;-73
2023/03/02 11:25:43;;;;;;;;;47.25;39.75;;;;;;;;5088753;27;45607;-73
2023/03/02 11:28:24;;;;;;;;;48.50;39.25;;;;;;;;5076524;27;47538;-73
2023/03/02 11:30:52;;;;;;;;;49.50;40.50;;;;;;;;5088985;27;45417;-73
2023/03/02 11:33:33;;;;;;;;;51.00;43.75;;;;;;;;5075996;27;45458;-73
2023/03/02 11:36:05;;;;;;;;;48.75;40.00;;;;;;;;5091486;27;45562;-73
2023/03/02 11:38:30;;;;;;;;;47.75;40.25;;;;;;;;5068057;27;46578;-74
2023/03/02 11:41:04;;;;;;;;;51.75;43.50;;;;;;;;5087612;27;45433;-74
2023/03/02 11:43:30;;;;;;;;;47.25;39.25;;;;;;;;5087459;27;45473;-73
2023/03/02 11:46:01;;;;;;;;;52.50;41.50;;;;;;;;5079340;27;45360;-73
2023/03/02 11:48:30;;;;;;;;;46.50;40.00;;;;;;;;5091375;27;45428;-74
2023/03/02 11:50:56;;;;;;;;;52.50;43.50;;;;;;;;5082252;27;45408;-73
2023/03/02 11:53:25;;;;;;;;;54.00;42.50;;;;;;;;5084095;27;45416;-73
2023/03/02 11:55:50;;;;;;;;;51.00;40.75;;;;;;;;5089880;27;45423;-74
2023/03/02 11:58:20;;;;;;;;;46.00;40.00;;;;;;;;5078107;27;45609;-73
2023/03/02 12:00:46;;;;;;;;;46.00;37.50;;;;;;;;5089107;27;45327;-73
2023/03/02 12:03:14;;;;;;;;;55.25;44.50;;;;;;;;5084370;27;45440;-73
2023/03/02 12:05:41;;;;;;;;;49.75;41.25;;;;;;;;5081231;27;45508;-73
2023/03/02 12:08:26;;;;;;;;;58.00;44.50;;;;;;;;5091207;27;47208;-73
2023/03/02 12:11:10;;;;;;;;;48.75;39.50;;;;;;;;5072407;27;45663;-73
2023/03/02 12:13:36;;;;;;;;;51.25;42.00;;;;;;;;5086275;27;45408;-74
2023/03/02 12:16:02;;;;;;;;;48.00;40.75;;;;;;;;5078021;27;45557;-74
2023/03/02 12:18:29;;;;;;;;;49.25;41.50;;;;;;;;5060770;27;46477;-74
2023/03/02 12:21:14;;;;;;;;;50.00;40.75;;;;;;;;5087030;27;45386;-73
2023/03/02 12:23:41;;;;;;;;;47.00;38.50;;;;;;;;5087948;27;45405;-73
2023/03/02 12:26:18;;;;;;;;;49.50;40.00;;;;;;;;5077628;27;45409;-74
2023/03/02 12:28:54;;;;;;;;;47.25;40.00;;;;;;;;5091128;27;46393;-74
2023/03/02 12:31:19;;;;;;;;;48.25;42.00;;;;;;;;5083801;27;45359;-73
2023/03/02 12:33:46;;;;;;;;;51.75;40.50;;;;;;;;5088242;27;45387;-73
2023/03/02 12:36:12;;;;;;;;;51.25;40.50;;;;;;;;5075333;27;45530;-74
2023/03/02 12:38:39;;;;;;;;;48.75;42.25;;;;;;;;5071215;27;45713;-74
2023/03/02 12:41:05;;;;;;;;;51.25;41.25;;;;;;;;5084875;27;45317;-74
2023/03/02 12:43:30;;;;;;;;;45.50;36.00;;;;;;;;5085817;27;45336;-74
2023/03/02 12:46:14;;;;;;;;;46.75;39.00;;;;;;;;5093414;27;45367;-74
2023/03/02 12:48:39;;;;;;;;;47.00;40.25;;;;;;;;5067956;27;45389;-73
2023/03/02 12:51:10;;;;;;;;;46.25;37.50;;;;;;;;5089401;27;45426;-73
2023/03/02 12:53:38;;;;;;;;;33.50;28.50;;;;;;;;5090588;27;45714;-74
2023/03/02 12:56:03;;;;;;;;;51.25;40.50;;;;;;;;5080972;27;45406;-74
2023/03/02 12:58:29;;;;;;;;;48.25;41.00;;;;;;;;5094281;27;46123;-74
2023/03/02 13:00:57;;;;;;;;;46.00;39.25;;;;;;;;5085054;27;45297;-75
2023/03/02 13:03:25;;;;;;;;;48.50;40.25;;;;;;;;5073877;27;45444;-75
2023/03/02 13:05:50;;;;;;;;;41.50;36.25;;;;;;;;5077535;28;45444;-75
2023/03/02 13:08:16;;;;;;;;;42.25;38.00;;;;;;;;5082480;27;47854;-74
2023/03/02 13:10:41;;;;;;;;;42.00;37.25;;;;;;;;5092257;27;45278;-75
2023/03/02 13:13:17;;;;;;;;;48.00;40.00;;;;;;;;5086691;27;45331;-75
2023/03/02 13:15:48;;;;;;;;;53.00;42.00;;;;;;;;5083399;27;45365;-75
2023/03/02 13:18:13;;;;;;;;;41.50;36.25;;;;;;;;5094223;27;45410;-75
2023/03/02 13:20:39;;;;;;;;;46.50;34.25;;;;;;;;5082673;27;45274;-75
2023/03/02 13:23:04;;;;;;;;;47.25;38.50;;;;;;;;5088457;27;45428;-74
2023/03/02 13:25:30;;;;;;;;;38.75;34.25;;;;;;;;5089964;27;45456;-74
2023/03/02 13:27:59;;;;;;;;;47.50;40.75;;;;;;;;5082596;27;47133;-73
2023/03/02 13:30:26;;;;;;;;;40.00;34.75;;;;;;;;5094297;27;45339;-74
2023/03/02 13:32:53;;;;;;;;;51.75;42.75;;;;;;;;5082947;27;45316;-74
2023/03/02 13:35:24;;;;;;;;;47.50;39.00;;;;;;;;5085348;27;45553;-74
2023/03/02 13:38:15;;;;;;;;;48.25;38.00;;;;;;;;5091640;27;48258;-74
2023/03/02 13:40:43;;;;;;;;;48.00;38.50;;;;;;;;5066551;27;45343;-74
2023/03/02 13:43:18;;;;;;;;;44.75;37.00;;;;;;;;5087801;27;45248;-74
2023/03/02 13:45:55;;;;;;;;;48.50;41.25;;;;;;;;5091092;27;45325;-74
2023/03/02 13:48:20;;;;;;;;;49.25;39.75;;;;;;;;5078988;27;47058;-74
2023/03/02 13:51:01;;;;;;;;;47.00;38.50;;;;;;;;5091031;27;45346;-74
2023/03/02 13:53:28;;;;;;;;;46.50;37.00;;;;;;;;5088441;27;45388;-74
2023/03/02 13:55:55;;;;;;;;;49.50;40.75;;;;;;;;5081291;27;45606;-74
2023/03/02 13:58:21;;;;;;;;;43.50;37.50;;;;;;;;5093183;27;45342;-74
2023/03/02 14:00:47;;;;;;;;;45.75;38.75;;;;;;;;5076615;28;45362;-74
2023/03/02 14:03:28;;;;;;;;;47.00;40.00;;;;;;;;5086409;27;45418;-74
2023/03/02 14:05:54;;;;;;;;;50.50;40.50;;;;;;;;5081028;27;45485;-74
2023/03/02 14:08:19;;;;;;;;;51.00;43.25;;;;;;;;5093071;27;46064;-74
2023/03/02 14:10:45;;;;;;;;;51.00;41.00;;;;;;;;5082904;27;45341;-74
2023/03/02 14:13:15;;;;;;;;;47.50;40.75;;;;;;;;5095056;27;45380;-74
2023/03/02 14:15:41;;;;;;;;;51.00;42.75;;;;;;;;5082830;27;45343;-74
2023/03/02 14:18:25;;;;;;;;;52.25;41.25;;;;;;;;5092996;27;46541;-74